Time;durP1;ratioP1;P1;durP2;ratioP2;P2;SDS_P1;SDS_P2;PMS_P1;PMS_P2;Temp;Humidity;BMP_temperature;BMP_pressure;BME280_temperature;BME280_humidity;BME280_pressure;Samples;Min_cycle;Max_cycle;Signal;HPM_P1;HPM_P2
2022/04/08 00:01:58;;;;;;;;;;;5.20;99.90;;;;;;5074897;28;19913;-73
2022/04/08 00:04:24;;;;;;;;;;;5.10;99.90;;;;;;5076206;28;19921;-74
2022/04/08 00:06:50;;;;;;;;;;;5.10;99.90;;;;;;5057876;28;19975;-74
2022/04/08 00:09:15;;;;;;;;;;;5.10;99.90;;;;;;5075000;28;20029;-73
2022/04/08 00:11:41;;;;;;;;;;;5.10;99.90;;;;;;5076112;28;19920;-74
2022/04/08 00:14:06;;;;;;;;;;;5.20;99.90;;;;;;5075350;28;19962;-73
2022/04/08 00:16:32;;;;;;;;;;;5.20;99.90;;;;;;5075153;28;19999;-73
2022/04/08 00:18:57;;;;;;;;;;;5.10;99.90;;;;;;5076539;28;19973;-73
2022/04/08 00:21:25;;;;;;;;;;;5.10;99.90;;;;;;5074626;28;19919;-74
2022/04/08 00:23:51;;;;;;;;;;;5.00;99.90;;;;;;5075612;28;19995;-74
2022/04/08 00:26:17;;;;;;;;;;;4.90;99.90;;;;;;5074821;28;20050;-74
2022/04/08 00:28:42;;;;;;;;;;;4.80;99.90;;;;;;5070278;28;19923;-73
2022/04/08 00:31:08;;;;;;;;;;;4.70;99.90;;;;;;5075752;28;19936;-74
2022/04/08 00:33:33;;;;;;;;;;;4.60;99.90;;;;;;5075454;28;19920;-74
2022/04/08 00:35:59;;;;;;;;;;;4.50;99.90;;;;;;5074846;28;20015;-74
2022/04/08 00:38:25;;;;;;;;;;;4.50;99.90;;;;;;5075523;28;19943;-73
2022/04/08 00:40:50;;;;;;;;;;;4.40;99.90;;;;;;5057789;28;19920;-74
2022/04/08 00:43:17;;;;;;;;;;;4.40;99.90;;;;;;5055470;28;19917;-73
2022/04/08 00:45:43;;;;;;;;;;;4.40;99.90;;;;;;5075726;28;19958;-74
2022/04/08 00:48:12;;;;;;;;;;;4.40;99.90;;;;;;5056204;28;20485;-73
2022/04/08 00:50:38;;;;;;;;;;;4.40;99.90;;;;;;5074812;28;19919;-74
2022/04/08 00:53:04;;;;;;;;;;;4.50;99.90;;;;;;5075216;28;20261;-73
2022/04/08 00:55:30;;;;;;;;;;;4.40;99.90;;;;;;5075520;28;19923;-73
2022/04/08 00:57:56;;;;;;;;;;;4.40;99.90;;;;;;5067059;28;20072;-73
2022/04/08 01:00:24;;;;;;;;;;;4.50;99.90;;;;;;5057295;28;19920;-73
2022/04/08 01:02:49;;;;;;;;;;;4.50;99.90;;;;;;5073154;28;20218;-73
2022/04/08 01:05:15;;;;;;;;;;;4.50;99.90;;;;;;5066265;28;19912;-73
2022/04/08 01:07:40;;;;;;;;;;;4.50;99.90;;;;;;5040529;28;19920;-73
2022/04/08 01:10:06;;;;;;;;;;;4.40;99.90;;;;;;5072017;28;20236;-73
2022/04/08 01:12:32;;;;;;;;;;;4.40;99.90;;;;;;5074233;28;20007;-73
2022/04/08 01:14:58;;;;;;;;;;;4.30;99.90;;;;;;5056068;28;19921;-73
2022/04/08 01:17:24;;;;;;;;;;;4.30;99.90;;;;;;5074815;28;19961;-73
2022/04/08 01:19:50;;;;;;;;;;;4.30;99.90;;;;;;5055423;28;19916;-73
2022/04/08 01:22:17;;;;;;;;;;;4.30;99.90;;;;;;5074278;28;19920;-73
2022/04/08 01:24:46;;;;;;;;;;;4.20;99.90;;;;;;5056551;28;19920;-73
2022/04/08 01:27:12;;;;;;;;;;;4.20;99.90;;;;;;5056825;28;20330;-73
2022/04/08 01:29:37;;;;;;;;;;;4.20;99.90;;;;;;5074231;28;20003;-73
2022/04/08 01:32:03;;;;;;;;;;;4.20;99.90;;;;;;5073230;28;19934;-73
2022/04/08 01:34:28;;;;;;;;;;;4.10;99.90;;;;;;5071862;28;19912;-73
2022/04/08 01:36:54;;;;;;;;;;;4.10;99.90;;;;;;5074771;28;19917;-73
2022/04/08 01:39:19;;;;;;;;;;;4.10;99.90;;;;;;5074325;28;19916;-73
2022/04/08 01:41:45;;;;;;;;;;;4.20;99.90;;;;;;5074346;28;19927;-73
2022/04/08 01:44:10;;;;;;;;;;;4.20;99.90;;;;;;5071855;28;19916;-73
2022/04/08 01:46:36;;;;;;;;;;;4.20;99.90;;;;;;5074110;28;19935;-73
2022/04/08 01:49:02;;;;;;;;;;;4.20;99.90;;;;;;5072812;28;19966;-73
2022/04/08 01:51:27;;;;;;;;;;;4.20;99.90;;;;;;5073703;28;19931;-73
2022/04/08 01:53:53;;;;;;;;;;;4.20;99.90;;;;;;5056090;28;19966;-73
2022/04/08 01:56:18;;;;;;;;;;;4.10;99.90;;;;;;5072256;28;19921;-73
2022/04/08 01:58:44;;;;;;;;;;;4.20;99.90;;;;;;5071977;28;20229;-73
2022/04/08 02:01:10;;;;;;;;;;;4.20;99.90;;;;;;5073072;28;20258;-73
2022/04/08 02:03:35;;;;;;;;;;;4.20;99.90;;;;;;5065220;28;20265;-73
2022/04/08 02:06:01;;;;;;;;;;;4.10;99.90;;;;;;5074015;28;19952;-73
2022/04/08 02:08:26;;;;;;;;;;;4.10;99.90;;;;;;5070836;28;19956;-73
2022/04/08 02:10:53;;;;;;;;;;;4.10;99.90;;;;;;5073887;28;19990;-73
2022/04/08 02:13:19;;;;;;;;;;;4.00;99.90;;;;;;5065473;28;19999;-73
2022/04/08 02:15:46;;;;;;;;;;;4.10;99.90;;;;;;5074134;28;19963;-73
2022/04/08 02:18:12;;;;;;;;;;;4.10;99.90;;;;;;5054985;28;19925;-73
2022/04/08 02:20:37;;;;;;;;;;;4.10;99.90;;;;;;5074204;28;19935;-72
2022/04/08 02:23:03;;;;;;;;;;;4.10;99.90;;;;;;5073451;28;19928;-73
2022/04/08 02:25:29;;;;;;;;;;;4.10;99.90;;;;;;5072239;28;19912;-73
2022/04/08 02:27:54;;;;;;;;;;;4.10;99.90;;;;;;5056102;28;20303;-72
2022/04/08 02:30:20;;;;;;;;;;;4.20;99.90;;;;;;5055738;28;20314;-73
2022/04/08 02:32:46;;;;;;;;;;;4.00;99.90;;;;;;5073552;28;19970;-73
2022/04/08 02:35:11;;;;;;;;;;;3.70;99.90;;;;;;5071658;28;20226;-73
2022/04/08 02:37:37;;;;;;;;;;;3.60;99.90;;;;;;5072756;28;20215;-73
2022/04/08 02:40:03;;;;;;;;;;;3.40;99.90;;;;;;5072803;28;19920;-73
2022/04/08 02:42:30;;;;;;;;;;;3.40;99.90;;;;;;5054716;28;19920;-74
2022/04/08 02:44:57;;;;;;;;;;;3.30;99.90;;;;;;5054140;28;19920;-74
2022/04/08 02:47:22;;;;;;;;;;;3.30;99.90;;;;;;5073108;28;19913;-73
2022/04/08 02:49:48;;;;;;;;;;;3.30;99.90;;;;;;5073490;28;19913;-73
2022/04/08 02:52:13;;;;;;;;;;;3.40;99.90;;;;;;5073101;28;20552;-73
2022/04/08 02:54:39;;;;;;;;;;;3.50;99.90;;;;;;5073014;28;19923;-73
2022/04/08 02:57:05;;;;;;;;;;;3.50;99.90;;;;;;5073093;28;19917;-74
2022/04/08 02:59:30;;;;;;;;;;;3.50;99.90;;;;;;5072336;28;19917;-73
2022/04/08 03:01:56;;;;;;;;;;;3.40;99.90;;;;;;5072740;28;19923;-73
2022/04/08 03:04:22;;;;;;;;;;;3.40;99.90;;;;;;5071310;28;19920;-72
2022/04/08 03:06:47;;;;;;;;;;;3.30;99.90;;;;;;5075878;28;19912;-73
2022/04/08 03:09:13;;;;;;;;;;;3.20;99.90;;;;;;5059323;28;19928;-73
2022/04/08 03:11:38;;;;;;;;;;;3.10;99.90;;;;;;5068669;28;19916;-73
2022/04/08 03:14:05;;;;;;;;;;;3.00;99.90;;;;;;5058760;28;19978;-73
2022/04/08 03:16:30;;;;;;;;;;;3.00;99.90;;;;;;5077358;28;19916;-72
2022/04/08 03:18:56;;;;;;;;;;;2.90;99.90;;;;;;5076996;28;19916;-73
2022/04/08 03:21:22;;;;;;;;;;;2.90;99.90;;;;;;5048564;28;19919;-73
2022/04/08 03:23:48;;;;;;;;;;;2.90;99.90;;;;;;5059674;28;20260;-72
2022/04/08 03:26:14;;;;;;;;;;;2.80;99.90;;;;;;5077285;28;20426;-72
2022/04/08 03:28:39;;;;;;;;;;;2.80;99.90;;;;;;5059060;28;20007;-72
2022/04/08 03:31:05;;;;;;;;;;;2.80;99.90;;;;;;5075218;28;20299;-72
2022/04/08 03:33:30;;;;;;;;;;;2.80;99.90;;;;;;5076545;28;19916;-73
2022/04/08 03:35:56;;;;;;;;;;;2.80;99.90;;;;;;5059129;28;20226;-72
2022/04/08 03:38:21;;;;;;;;;;;2.80;99.90;;;;;;5059075;28;19919;-73
2022/04/08 03:40:48;;;;;;;;;;;2.70;99.90;;;;;;5075106;28;19967;-73
2022/04/08 03:43:13;;;;;;;;;;;2.60;99.90;;;;;;5074569;28;19913;-73
2022/04/08 03:45:39;;;;;;;;;;;2.60;99.90;;;;;;5075760;28;20354;-72
2022/04/08 03:48:07;;;;;;;;;;;2.60;99.90;;;;;;5058808;28;19956;-73
2022/04/08 03:50:32;;;;;;;;;;;2.60;99.90;;;;;;5058556;28;20011;-72
2022/04/08 03:52:58;;;;;;;;;;;2.60;99.90;;;;;;5058229;28;20003;-73
2022/04/08 03:55:23;;;;;;;;;;;2.50;99.90;;;;;;5075657;28;20015;-73
2022/04/08 03:57:49;;;;;;;;;;;2.50;99.90;;;;;;5076884;28;19920;-73
2022/04/08 04:00:15;;;;;;;;;;;2.50;99.90;;;;;;5074927;28;20321;-72
2022/04/08 04:02:41;;;;;;;;;;;2.50;99.90;;;;;;5076537;28;19919;-73
2022/04/08 04:05:07;;;;;;;;;;;2.50;99.90;;;;;;5074093;28;19920;-73
2022/04/08 04:07:33;;;;;;;;;;;2.50;99.90;;;;;;5072835;28;19917;-72
2022/04/08 04:09:59;;;;;;;;;;;2.50;99.90;;;;;;5072783;28;19962;-73
2022/04/08 04:12:26;;;;;;;;;;;2.50;99.90;;;;;;5075561;28;19926;-74
2022/04/08 04:14:52;;;;;;;;;;;2.50;99.90;;;;;;5057685;28;19912;-73
2022/04/08 04:17:19;;;;;;;;;;;2.50;99.90;;;;;;5055276;28;19935;-73
2022/04/08 04:19:44;;;;;;;;;;;2.40;99.90;;;;;;5058842;28;19916;-73
2022/04/08 04:22:10;;;;;;;;;;;2.40;99.90;;;;;;5073340;28;20228;-73
2022/04/08 04:24:35;;;;;;;;;;;2.40;99.90;;;;;;5071009;28;19981;-73
2022/04/08 04:27:01;;;;;;;;;;;2.40;99.90;;;;;;5071382;28;20250;-73
2022/04/08 04:29:27;;;;;;;;;;;2.40;99.90;;;;;;5076099;28;19935;-73
2022/04/08 04:31:55;;;;;;;;;;;2.40;99.90;;;;;;5078050;28;19985;-72
2022/04/08 04:34:22;;;;;;;;;;;2.40;99.90;;;;;;5059422;28;19916;-72
2022/04/08 04:36:48;;;;;;;;;;;2.40;99.90;;;;;;5070945;28;20300;-73
2022/04/08 04:39:13;;;;;;;;;;;2.40;99.90;;;;;;5058838;28;19978;-72
2022/04/08 04:41:39;;;;;;;;;;;2.40;99.90;;;;;;5065549;28;19920;-72
2022/04/08 04:44:04;;;;;;;;;;;2.50;99.90;;;;;;5076039;28;19916;-72
2022/04/08 04:46:30;;;;;;;;;;;2.50;99.90;;;;;;5073802;28;19920;-72
2022/04/08 04:48:56;;;;;;;;;;;2.50;99.90;;;;;;5073500;28;20447;-73
2022/04/08 04:51:21;;;;;;;;;;;2.50;99.90;;;;;;5072375;28;20307;-72
2022/04/08 04:53:47;;;;;;;;;;;2.50;99.90;;;;;;5075725;28;20374;-72
2022/04/08 04:56:12;;;;;;;;;;;2.50;99.90;;;;;;5074036;28;19912;-72
2022/04/08 04:58:38;;;;;;;;;;;2.50;99.90;;;;;;5075298;28;19912;-72
2022/04/08 05:01:03;;;;;;;;;;;2.50;99.90;;;;;;5074294;28;19913;-72
2022/04/08 05:03:29;;;;;;;;;;;2.60;99.90;;;;;;5073760;28;19930;-73
2022/04/08 05:05:55;;;;;;;;;;;2.60;99.90;;;;;;5074308;28;19971;-73
2022/04/08 05:08:20;;;;;;;;;;;2.60;99.90;;;;;;5040952;28;20187;-72
2022/04/08 05:10:46;;;;;;;;;;;2.60;99.90;;;;;;5056665;28;19916;-72
2022/04/08 05:13:12;;;;;;;;;;;2.60;99.90;;;;;;5074363;28;19925;-73
2022/04/08 05:15:38;;;;;;;;;;;2.70;99.90;;;;;;5056727;28;19912;-72
2022/04/08 05:18:04;;;;;;;;;;;2.70;99.90;;;;;;5071591;28;19920;-72
2022/04/08 05:20:30;;;;;;;;;;;2.70;99.90;;;;;;5057001;28;19924;-73
2022/04/08 05:22:55;;;;;;;;;;;2.80;99.90;;;;;;5074463;28;20226;-73
2022/04/08 05:25:21;;;;;;;;;;;2.80;99.90;;;;;;5073103;28;20219;-73
2022/04/08 05:27:47;;;;;;;;;;;2.90;99.90;;;;;;5074027;28;20219;-72
2022/04/08 05:30:15;;;;;;;;;;;2.90;99.90;;;;;;5052250;28;19917;-72
2022/04/08 05:32:41;;;;;;;;;;;3.00;99.90;;;;;;5056413;28;20231;-72
2022/04/08 05:35:07;;;;;;;;;;;3.10;99.90;;;;;;5074550;28;19919;-73
2022/04/08 05:37:37;;;;;;;;;;;3.10;99.90;;;;;;5074425;28;19916;-73
2022/04/08 05:40:03;;;;;;;;;;;3.20;99.90;;;;;;5073794;28;19912;-73
2022/04/08 05:42:28;;;;;;;;;;;3.10;99.90;;;;;;5047797;28;19912;-73
2022/04/08 05:44:54;;;;;;;;;;;3.20;99.90;;;;;;5074102;28;19920;-73
2022/04/08 05:47:19;;;;;;;;;;;3.20;99.90;;;;;;5064358;28;19927;-72
2022/04/08 05:49:45;;;;;;;;;;;3.20;99.90;;;;;;5073681;28;19962;-73
2022/04/08 05:52:12;;;;;;;;;;;3.30;99.90;;;;;;5073539;28;19924;-72
2022/04/08 05:54:37;;;;;;;;;;;3.30;99.90;;;;;;5055081;28;19920;-72
2022/04/08 05:57:03;;;;;;;;;;;3.30;99.90;;;;;;5073784;28;20217;-73
2022/04/08 05:59:29;;;;;;;;;;;3.40;99.90;;;;;;5040086;28;19969;-73
2022/04/08 06:01:54;;;;;;;;;;;3.40;99.90;;;;;;5055349;28;20394;-73
2022/04/08 06:04:21;;;;;;;;;;;3.50;99.90;;;;;;5073857;28;19999;-72
2022/04/08 06:06:46;;;;;;;;;;;3.60;99.90;;;;;;5072781;28;19958;-72
2022/04/08 06:09:12;;;;;;;;;;;3.60;99.90;;;;;;5072502;28;19912;-72
2022/04/08 06:11:38;;;;;;;;;;;3.70;99.90;;;;;;5070895;28;19920;-73
2022/04/08 06:14:03;;;;;;;;;;;3.80;99.90;;;;;;5072207;28;19921;-73
2022/04/08 06:16:29;;;;;;;;;;;3.90;99.90;;;;;;5072387;28;20330;-72
2022/04/08 06:18:55;;;;;;;;;;;4.10;99.90;;;;;;5055290;28;19960;-73
2022/04/08 06:21:21;;;;;;;;;;;4.20;99.90;;;;;;5053515;28;19917;-73
2022/04/08 06:23:47;;;;;;;;;;;4.30;99.90;;;;;;5054647;28;19919;-73
2022/04/08 06:26:14;;;;;;;;;;;4.40;99.90;;;;;;5068908;28;20311;-73
2022/04/08 06:28:41;;;;;;;;;;;4.40;99.90;;;;;;5066994;28;19939;-73
2022/04/08 06:31:07;;;;;;;;;;;4.50;99.90;;;;;;5050051;28;20325;-73
2022/04/08 06:33:32;;;;;;;;;;;4.60;99.90;;;;;;5053885;28;19921;-73
2022/04/08 06:36:00;;;;;;;;;;;4.70;99.90;;;;;;5066966;28;20308;-73
2022/04/08 06:38:26;;;;;;;;;;;4.80;99.90;;;;;;5069765;28;19917;-73
2022/04/08 06:40:52;;;;;;;;;;;4.90;99.90;;;;;;5067250;28;20029;-73
2022/04/08 06:43:17;;;;;;;;;;;5.00;99.90;;;;;;5052610;28;19938;-73
2022/04/08 06:45:43;;;;;;;;;;;5.20;99.90;;;;;;5066673;28;20331;-73
2022/04/08 06:48:08;;;;;;;;;;;5.50;99.90;;;;;;5058810;28;19921;-73
2022/04/08 06:50:34;;;;;;;;;;;6.10;99.90;;;;;;5066827;28;20359;-73
2022/04/08 06:53:00;;;;;;;;;;;6.80;99.90;;;;;;5065854;28;19965;-73
2022/04/08 06:55:27;;;;;;;;;;;7.30;99.90;;;;;;5057104;28;19912;-73
2022/04/08 06:57:52;;;;;;;;;;;7.50;99.90;;;;;;5067828;28;19921;-73
2022/04/08 07:00:18;;;;;;;;;;;8.00;99.90;;;;;;5047578;28;19919;-73
2022/04/08 07:02:44;;;;;;;;;;;8.40;99.90;;;;;;5054638;28;20023;-73
2022/04/08 07:05:10;;;;;;;;;;;8.80;99.90;;;;;;5071008;28;19928;-73
2022/04/08 07:07:37;;;;;;;;;;;9.10;99.90;;;;;;5072350;28;19912;-73
2022/04/08 07:10:04;;;;;;;;;;;9.50;99.90;;;;;;5051792;28;19979;-73
2022/04/08 07:12:30;;;;;;;;;;;9.70;99.90;;;;;;5071302;28;20003;-73
2022/04/08 07:14:56;;;;;;;;;;;9.70;99.90;;;;;;5072481;28;19995;-73
2022/04/08 07:17:31;;;;;;;;;;;10.00;99.90;;;;;;5068900;28;19917;-73
2022/04/08 07:19:57;;;;;;;;;;;10.30;99.90;;;;;;5055209;28;19916;-73
2022/04/08 07:22:23;;;;;;;;;;;10.40;99.90;;;;;;5072259;28;19919;-73
2022/04/08 07:24:50;;;;;;;;;;;10.60;99.90;;;;;;5073617;28;19916;-73
2022/04/08 07:27:16;;;;;;;;;;;10.70;99.90;;;;;;5073337;28;19916;-73
2022/04/08 07:29:42;;;;;;;;;;;11.10;99.90;;;;;;5073047;28;19958;-73
2022/04/08 07:32:07;;;;;;;;;;;11.40;99.90;;;;;;5073269;28;19924;-73
2022/04/08 07:34:33;;;;;;;;;;;11.50;99.90;;;;;;5073042;28;19913;-74
2022/04/08 07:36:59;;;;;;;;;;;11.70;99.90;;;;;;5072827;28;19916;-73
2022/04/08 07:39:25;;;;;;;;;;;11.70;99.90;;;;;;5071722;28;20203;-73
2022/04/08 07:41:51;;;;;;;;;;;11.80;99.90;;;;;;5055004;28;19958;-73
2022/04/08 07:44:16;;;;;;;;;;;12.00;99.90;;;;;;5072311;28;19912;-73
2022/04/08 07:46:42;;;;;;;;;;;12.30;99.90;;;;;;5069569;28;19927;-73
2022/04/08 07:49:08;;;;;;;;;;;12.10;99.90;;;;;;5071253;28;19975;-73
2022/04/08 07:51:33;;;;;;;;;;;12.00;99.90;;;;;;5072316;28;20274;-73
2022/04/08 07:53:59;;;;;;;;;;;11.90;99.90;;;;;;5067363;28;20007;-73
2022/04/08 07:56:25;;;;;;;;;;;12.00;99.90;;;;;;5076971;28;19917;-73
2022/04/08 07:58:51;;;;;;;;;;;11.80;99.90;;;;;;5076823;28;19939;-73
2022/04/08 08:01:16;;;;;;;;;;;11.60;99.90;;;;;;5075238;28;20307;-73
2022/04/08 08:03:45;;;;;;;;;;;11.10;99.90;;;;;;5066153;28;19920;-73
2022/04/08 08:06:11;;;;;;;;;;;10.50;99.90;;;;;;5076251;28;19913;-73
2022/04/08 08:08:37;;;;;;;;;;;10.00;99.90;;;;;;5076183;28;19998;-73
2022/04/08 08:11:03;;;;;;;;;;;9.80;99.90;;;;;;5058591;28;19983;-73
2022/04/08 08:13:29;;;;;;;;;;;9.50;99.90;;;;;;5075900;28;19913;-73
2022/04/08 08:15:54;;;;;;;;;;;9.40;99.90;;;;;;5074806;28;19923;-73
2022/04/08 08:18:21;;;;;;;;;;;9.30;99.90;;;;;;5076434;28;19970;-73
2022/04/08 08:20:48;;;;;;;;;;;9.30;99.90;;;;;;5076316;28;19958;-73
2022/04/08 08:23:13;;;;;;;;;;;9.20;99.90;;;;;;5074761;28;19912;-73
2022/04/08 08:25:40;;;;;;;;;;;9.20;99.90;;;;;;5058340;28;20121;-73
2022/04/08 08:28:06;;;;;;;;;;;9.20;99.90;;;;;;5074668;28;19923;-72
2022/04/08 08:30:32;;;;;;;;;;;9.30;99.90;;;;;;5058106;28;19921;-73
2022/04/08 08:32:58;;;;;;;;;;;9.50;99.90;;;;;;5075878;28;20285;-73
2022/04/08 08:35:25;;;;;;;;;;;9.70;99.90;;;;;;5076121;28;20214;-73
2022/04/08 08:37:50;;;;;;;;;;;10.00;99.90;;;;;;5074914;28;19943;-73
2022/04/08 08:40:17;;;;;;;;;;;10.20;99.90;;;;;;5075982;28;20299;-73
2022/04/08 08:42:42;;;;;;;;;;;10.20;99.90;;;;;;5074293;28;20003;-73
2022/04/08 08:45:09;;;;;;;;;;;9.90;99.90;;;;;;5074893;28;20373;-73
2022/04/08 08:47:36;;;;;;;;;;;10.00;99.90;;;;;;5075263;28;19923;-73
2022/04/08 08:50:02;;;;;;;;;;;10.20;99.90;;;;;;5057226;28;20022;-73
2022/04/08 08:52:28;;;;;;;;;;;10.30;99.90;;;;;;5072852;28;19920;-73
2022/04/08 08:54:54;;;;;;;;;;;10.30;99.90;;;;;;5075072;28;19935;-73
2022/04/08 08:57:21;;;;;;;;;;;10.30;99.90;;;;;;5074639;28;19916;-73
2022/04/08 08:59:47;;;;;;;;;;;10.30;99.90;;;;;;5072545;28;20319;-73
2022/04/08 09:02:20;;;;;;;;;;;10.50;99.90;;;;;;5073601;28;20246;-73
2022/04/08 09:04:46;;;;;;;;;;;10.30;99.90;;;;;;5045153;28;19913;-73
2022/04/08 09:07:28;;;;;;;;;;;10.20;99.90;;;;;;5056633;28;19923;-71
2022/04/08 09:09:57;;;;;;;;;;;9.90;99.90;;;;;;5074130;28;19916;-73
2022/04/08 09:12:24;;;;;;;;;;;9.80;99.90;;;;;;5074353;28;20307;-73
2022/04/08 09:14:51;;;;;;;;;;;9.80;99.90;;;;;;5074074;28;19916;-72
2022/04/08 09:17:18;;;;;;;;;;;9.80;99.90;;;;;;5055935;28;19971;-74
2022/04/08 09:19:48;;;;;;;;;;;10.10;99.90;;;;;;5055926;28;19912;-73
2022/04/08 09:22:14;;;;;;;;;;;10.30;99.90;;;;;;5075025;28;19912;-73
2022/04/08 09:24:39;;;;;;;;;;;10.30;99.90;;;;;;5056953;28;19927;-73
2022/04/08 09:27:05;;;;;;;;;;;10.30;99.90;;;;;;5074591;28;20242;-73
2022/04/08 09:29:31;;;;;;;;;;;10.20;99.90;;;;;;5057232;28;20405;-73
2022/04/08 09:32:00;;;;;;;;;;;10.30;99.90;;;;;;5056077;28;19959;-73
2022/04/08 09:34:26;;;;;;;;;;;10.30;99.90;;;;;;5075229;28;20215;-73
2022/04/08 09:36:52;;;;;;;;;;;10.20;99.90;;;;;;5056718;28;19962;-72
2022/04/08 09:39:18;;;;;;;;;;;10.20;99.90;;;;;;5072736;28;19963;-73
2022/04/08 09:41:45;;;;;;;;;;;10.30;99.90;;;;;;5073367;28;19928;-72
2022/04/08 09:44:12;;;;;;;;;;;10.30;99.90;;;;;;5074106;28;19912;-72
2022/04/08 09:46:38;;;;;;;;;;;10.30;99.90;;;;;;5073848;28;20350;-72
2022/04/08 09:49:06;;;;;;;;;;;10.30;99.90;;;;;;5073093;28;20265;-72
2022/04/08 09:51:39;;;;;;;;;;;10.10;99.90;;;;;;5073556;28;19936;-72
2022/04/08 09:54:12;;;;;;;;;;;10.00;99.90;;;;;;5056141;28;20326;-73
2022/04/08 09:56:38;;;;;;;;;;;9.90;99.90;;;;;;5056205;28;19943;-73
2022/04/08 09:59:08;;;;;;;;;;;9.70;99.90;;;;;;5073191;28;19927;-72
2022/04/08 10:01:35;;;;;;;;;;;9.50;99.90;;;;;;5073970;28;20327;-72
2022/04/08 10:04:03;;;;;;;;;;;9.40;99.90;;;;;;5063167;28;19913;-73
2022/04/08 10:06:29;;;;;;;;;;;9.40;99.90;;;;;;5073032;28;19951;-73
2022/04/08 10:08:55;;;;;;;;;;;9.30;99.90;;;;;;5044453;28;19959;-73
2022/04/08 10:11:25;;;;;;;;;;;9.50;99.90;;;;;;5071280;28;19920;-73
2022/04/08 10:14:06;;;;;;;;;;;9.60;99.90;;;;;;5070606;28;20219;-73
2022/04/08 10:16:32;;;;;;;;;;;9.80;99.90;;;;;;5068903;28;19916;-73
2022/04/08 10:19:04;;;;;;;;;;;9.90;99.90;;;;;;5073711;28;19923;-73
2022/04/08 10:21:38;;;;;;;;;;;10.10;99.90;;;;;;5055546;28;20299;-73
2022/04/08 10:24:07;;;;;;;;;;;10.30;99.90;;;;;;5072105;28;19916;-72
2022/04/08 10:26:33;;;;;;;;;;;10.50;99.90;;;;;;5073270;28;19948;-73
2022/04/08 10:29:08;;;;;;;;;;;10.50;99.90;;;;;;5073870;28;20263;-72
2022/04/08 10:31:34;;;;;;;;;;;10.60;99.90;;;;;;5072936;28;19921;-73
2022/04/08 10:34:00;;;;;;;;;;;10.70;99.90;;;;;;5073335;28;20215;-72
2022/04/08 10:36:41;;;;;;;;;;;10.60;99.90;;;;;;5070977;28;19970;-73
2022/04/08 10:39:13;;;;;;;;;;;10.50;99.90;;;;;;5055164;28;19920;-73
2022/04/08 10:41:52;;;;;;;;;;;10.40;99.90;;;;;;5054853;28;20310;-73
2022/04/08 10:44:35;;;;;;;;;;;10.40;99.90;;;;;;5072557;28;19916;-73
2022/04/08 10:47:17;;;;;;;;;;;10.60;99.90;;;;;;5055159;28;19943;-72
2022/04/08 10:49:47;;;;;;;;;;;10.60;99.90;;;;;;5068972;28;20340;-73
2022/04/08 10:52:16;;;;;;;;;;;10.60;99.90;;;;;;5071255;28;19916;-73
2022/04/08 10:54:42;;;;;;;;;;;10.60;99.90;;;;;;5053140;28;19921;-72
2022/04/08 10:57:08;;;;;;;;;;;10.40;99.90;;;;;;5072804;28;19939;-73
2022/04/08 10:59:33;;;;;;;;;;;10.30;99.90;;;;;;5071342;28;19928;-72
2022/04/08 11:02:02;;;;;;;;;;;10.30;99.90;;;;;;5073886;28;19985;-72
2022/04/08 11:04:30;;;;;;;;;;;10.10;99.90;;;;;;5073297;28;19928;-75
2022/04/08 11:06:57;;;;;;;;;;;10.00;99.90;;;;;;5073808;28;20002;-73
2022/04/08 11:09:23;;;;;;;;;;;9.80;99.90;;;;;;5064806;28;19912;-72
2022/04/08 11:11:53;;;;;;;;;;;9.30;99.90;;;;;;5071866;28;19974;-73
2022/04/08 11:14:19;;;;;;;;;;;8.30;99.90;;;;;;5071974;28;19998;-73
2022/04/08 11:16:46;;;;;;;;;;;7.80;99.90;;;;;;5069394;28;19916;-72
2022/04/08 11:19:12;;;;;;;;;;;7.80;99.90;;;;;;5043710;28;19916;-72
2022/04/08 11:21:39;;;;;;;;;;;7.80;99.90;;;;;;5072620;28;19924;-72
2022/04/08 11:24:08;;;;;;;;;;;7.90;99.90;;;;;;5071959;28;19917;-72
2022/04/08 11:26:41;;;;;;;;;;;8.10;99.90;;;;;;5072145;28;19913;-72
2022/04/08 11:29:19;;;;;;;;;;;8.20;99.90;;;;;;5076223;28;20313;-72
2022/04/08 11:31:46;;;;;;;;;;;8.60;99.90;;;;;;5075826;28;19966;-72
2022/04/08 11:34:13;;;;;;;;;;;9.10;99.90;;;;;;5076962;28;20030;-72
2022/04/08 11:36:38;;;;;;;;;;;9.30;99.90;;;;;;5075539;28;20314;-72
2022/04/08 11:39:04;;;;;;;;;;;9.40;99.90;;;;;;5057688;28;19916;-72
2022/04/08 11:41:30;;;;;;;;;;;9.70;99.90;;;;;;5076636;28;19919;-72
2022/04/08 11:43:56;;;;;;;;;;;9.60;99.90;;;;;;5077143;28;19912;-72
2022/04/08 11:46:22;;;;;;;;;;;9.80;99.90;;;;;;5076556;28;19928;-72
2022/04/08 11:48:49;;;;;;;;;;;9.60;99.90;;;;;;5075621;28;19919;-72
2022/04/08 11:51:17;;;;;;;;;;;9.60;99.90;;;;;;5074423;28;20303;-72
2022/04/08 11:53:44;;;;;;;;;;;9.50;99.90;;;;;;5076126;28;19912;-73
2022/04/08 11:56:09;;;;;;;;;;;10.00;99.90;;;;;;5074977;28;19923;-73
2022/04/08 11:58:35;;;;;;;;;;;10.30;99.90;;;;;;5059255;28;19916;-72
2022/04/08 12:01:00;;;;;;;;;;;10.80;99.90;;;;;;5075717;28;19916;-72
2022/04/08 12:03:30;;;;;;;;;;;10.90;99.90;;;;;;5076393;28;20038;-73
2022/04/08 12:05:55;;;;;;;;;;;10.90;99.90;;;;;;5055295;28;19916;-73
2022/04/08 12:08:21;;;;;;;;;;;10.90;99.90;;;;;;5058585;28;19926;-73
2022/04/08 12:10:58;;;;;;;;;;;10.80;99.90;;;;;;5076309;28;19912;-72
2022/04/08 12:13:24;;;;;;;;;;;11.00;99.90;;;;;;5075857;28;19916;-73
2022/04/08 12:15:53;;;;;;;;;;;11.10;99.90;;;;;;5074494;28;20001;-72
2022/04/08 12:18:23;;;;;;;;;;;11.20;99.90;;;;;;5066539;28;20307;-72
2022/04/08 12:20:53;;;;;;;;;;;10.90;99.90;;;;;;5049135;28;20317;-72
2022/04/08 12:23:23;;;;;;;;;;;10.50;99.90;;;;;;5056317;28;20211;-72
2022/04/08 12:25:52;;;;;;;;;;;10.90;99.90;;;;;;5073783;28;19916;-73
2022/04/08 12:28:18;;;;;;;;;;;10.20;99.90;;;;;;5056418;28;19912;-72
2022/04/08 12:30:44;;;;;;;;;;;10.10;99.90;;;;;;5072534;28;19913;-72
2022/04/08 12:33:09;;;;;;;;;;;10.00;99.90;;;;;;5056518;28;19928;-73
2022/04/08 12:35:35;;;;;;;;;;;9.90;99.90;;;;;;5054322;28;19963;-72
2022/04/08 12:38:04;;;;;;;;;;;10.10;99.90;;;;;;5074468;28;19958;-72
2022/04/08 12:40:30;;;;;;;;;;;10.10;99.90;;;;;;5055952;28;19917;-73
2022/04/08 12:42:56;;;;;;;;;;;10.30;99.90;;;;;;5074669;28;19917;-72
2022/04/08 12:45:21;;;;;;;;;;;10.10;99.90;;;;;;5055942;28;20197;-72
2022/04/08 12:47:47;;;;;;;;;;;10.20;99.90;;;;;;5056244;28;19912;-72
2022/04/08 12:50:13;;;;;;;;;;;10.10;99.90;;;;;;5075955;28;19928;-72
2022/04/08 12:52:41;;;;;;;;;;;10.00;99.90;;;;;;5073988;28;19920;-73
2022/04/08 12:55:07;;;;;;;;;;;10.00;99.90;;;;;;5056303;28;19912;-72
2022/04/08 12:57:34;;;;;;;;;;;10.50;99.90;;;;;;5054685;28;19925;-72
2022/04/08 13:00:00;;;;;;;;;;;10.60;99.90;;;;;;5074891;28;19917;-72
2022/04/08 13:02:25;;;;;;;;;;;9.90;99.90;;;;;;5074130;28;20326;-73
2022/04/08 13:04:51;;;;;;;;;;;9.60;99.90;;;;;;5055666;28;19912;-72
2022/04/08 13:07:17;;;;;;;;;;;9.40;99.90;;;;;;5074240;28;19912;-72
2022/04/08 13:09:42;;;;;;;;;;;9.60;99.90;;;;;;5075238;28;19913;-73
2022/04/08 13:12:08;;;;;;;;;;;9.80;99.90;;;;;;5074436;28;19923;-72
2022/04/08 13:14:34;;;;;;;;;;;9.60;99.90;;;;;;5073624;28;19928;-72
2022/04/08 13:16:59;;;;;;;;;;;9.80;99.90;;;;;;5073852;28;19975;-72
2022/04/08 13:19:25;;;;;;;;;;;9.50;99.90;;;;;;5073966;28;19917;-73
2022/04/08 13:21:51;;;;;;;;;;;9.50;99.90;;;;;;5065011;28;19912;-72
2022/04/08 13:24:17;;;;;;;;;;;9.50;99.90;;;;;;5074048;28;19913;-72
2022/04/08 13:26:43;;;;;;;;;;;9.50;99.90;;;;;;5072867;28;20003;-72
2022/04/08 13:29:10;;;;;;;;;;;9.30;99.90;;;;;;5074695;28;19913;-71
2022/04/08 13:31:37;;;;;;;;;;;9.30;99.90;;;;;;5064164;28;19917;-72
2022/04/08 13:34:03;;;;;;;;;;;9.20;99.90;;;;;;5068589;28;19912;-72
2022/04/08 13:36:29;;;;;;;;;;;9.20;99.90;;;;;;5054933;28;19920;-72
2022/04/08 13:38:54;;;;;;;;;;;9.10;99.90;;;;;;5074445;28;20389;-72
2022/04/08 13:41:20;;;;;;;;;;;9.00;99.90;;;;;;5068935;28;20212;-72
2022/04/08 13:43:46;;;;;;;;;;;9.00;99.90;;;;;;5072727;28;19960;-72
2022/04/08 13:46:12;;;;;;;;;;;8.90;99.90;;;;;;5073079;28;19924;-73
2022/04/08 13:48:37;;;;;;;;;;;8.90;99.90;;;;;;5055670;28;19939;-72
2022/04/08 13:51:03;;;;;;;;;;;8.90;99.90;;;;;;5071795;28;19916;-71
2022/04/08 13:53:28;;;;;;;;;;;8.80;99.90;;;;;;5057143;28;19917;-73
2022/04/08 13:55:54;;;;;;;;;;;8.70;99.90;;;;;;5074408;28;19969;-72
2022/04/08 13:58:19;;;;;;;;;;;8.60;99.90;;;;;;5056479;28;19921;-73
2022/04/08 14:00:45;;;;;;;;;;;8.50;99.90;;;;;;5074483;28;20219;-72
2022/04/08 14:03:10;;;;;;;;;;;8.40;99.90;;;;;;5072728;28;20223;-72
2022/04/08 14:05:36;;;;;;;;;;;8.40;99.90;;;;;;5055293;28;19920;-73
2022/04/08 14:08:01;;;;;;;;;;;8.30;99.90;;;;;;5073669;28;19939;-72
2022/04/08 14:10:27;;;;;;;;;;;8.40;99.90;;;;;;5055048;28;19958;-72
2022/04/08 14:12:53;;;;;;;;;;;8.50;99.90;;;;;;5072698;28;19924;-73
2022/04/08 14:15:18;;;;;;;;;;;8.50;99.90;;;;;;5054328;28;19920;-72
2022/04/08 14:17:44;;;;;;;;;;;8.50;99.90;;;;;;5054514;28;19924;-72
2022/04/08 14:20:10;;;;;;;;;;;8.60;99.90;;;;;;5038873;28;19931;-72
2022/04/08 14:22:35;;;;;;;;;;;8.60;99.90;;;;;;5054541;28;20011;-72